Time;durP1;ratioP1;P1;durP2;ratioP2;P2;SDS_P1;SDS_P2;PMS_P1;PMS_P2;Temp;Humidity;BMP_temperature;BMP_pressure;BME280_temperature;BME280_humidity;BME280_pressure;Samples;Min_cycle;Max_cycle;Signal;HPM_P1;HPM_P2
2023/04/26 00:00:44;;;;;;;4.53;2.30;;;2.20;99.90;;;;;;5060292;28;20055;-88
2023/04/26 00:03:13;;;;;;;10.23;2.17;;;2.40;99.90;;;;;;5066368;28;20059;-87
2023/04/26 00:05:41;;;;;;;4.68;2.17;;;2.10;99.90;;;;;;5059524;28;20040;-86
2023/04/26 00:08:08;;;;;;;5.90;1.60;;;2.40;99.90;;;;;;5045727;28;20406;-87
2023/04/26 00:10:34;;;;;;;6.55;2.33;;;2.40;99.90;;;;;;5068911;28;20044;-88
2023/04/26 00:12:59;;;;;;;6.22;2.10;;;2.20;99.90;;;;;;5054647;28;20049;-88
2023/04/26 00:15:31;;;;;;;9.38;1.90;;;2.00;99.90;;;;;;5052629;28;20073;-87
2023/04/26 00:17:56;;;;;;;8.70;2.30;;;2.20;99.90;;;;;;5065220;28;20134;-88
2023/04/26 00:20:22;;;;;;;5.35;2.40;;;2.40;99.90;;;;;;5055763;28;20052;-87
2023/04/26 00:22:48;;;;;;;5.45;2.70;;;2.50;99.90;;;;;;5051352;28;20076;-88
2023/04/26 00:25:16;;;;;;;8.10;1.92;;;2.30;99.90;;;;;;5044273;28;20045;-87
2023/04/26 00:27:56;;;;;;;5.72;1.58;;;2.60;99.90;;;;;;5055609;28;20502;-87
2023/04/26 00:30:22;;;;;;;7.45;2.50;;;3.00;99.90;;;;;;5063191;28;20111;-87
2023/04/26 00:32:48;;;;;;;9.68;2.05;;;3.10;99.90;;;;;;5044593;28;20150;-87
2023/04/26 00:35:17;;;;;;;7.00;1.92;;;2.90;99.90;;;;;;5050339;28;20048;-88
2023/04/26 00:37:43;;;;;;;4.70;1.60;;;2.90;99.90;;;;;;5086630;28;20056;-87
2023/04/26 00:40:12;;;;;;;8.73;2.00;;;2.80;99.90;;;;;;5054639;28;20044;-88
2023/04/26 00:42:41;;;;;;;7.03;1.80;;;2.80;99.90;;;;;;5052917;28;20067;-88
2023/04/26 00:45:07;;;;;;;7.70;2.33;;;2.80;99.90;;;;;;5054659;28;20127;-87
2023/04/26 00:47:35;;;;;;;3.25;1.67;;;2.60;99.90;;;;;;5051330;28;20052;-88
2023/04/26 00:50:04;;;;;;;5.03;1.92;;;2.30;99.90;;;;;;5036383;28;20051;-87
2023/04/26 00:52:33;;;;;;;5.70;1.90;;;2.50;99.90;;;;;;5058768;28;20045;-87
2023/04/26 00:55:19;;;;;;;4.68;2.05;;;2.90;99.90;;;;;;5064445;28;20129;-88
2023/04/26 00:57:45;;;;;;;5.22;1.88;;;2.90;99.90;;;;;;5054086;28;20131;-88
2023/04/26 01:00:19;;;;;;;10.77;1.60;;;2.60;99.90;;;;;;5066712;28;20049;-87
2023/04/26 01:02:45;;;;;;;6.45;1.85;;;2.50;99.90;;;;;;5055207;28;20045;-88
2023/04/26 01:05:13;;;;;;;3.83;1.75;;;2.50;99.90;;;;;;5058681;28;20105;-87
2023/04/26 01:07:39;;;;;;;6.25;1.83;;;2.50;99.90;;;;;;5037601;28;20102;-88
2023/04/26 01:10:08;;;;;;;6.07;2.20;;;2.50;99.90;;;;;;5060213;28;20103;-87
2023/04/26 01:12:37;;;;;;;4.22;2.00;;;2.40;99.90;;;;;;5022377;28;20473;-86
2023/04/26 01:15:04;;;;;;;4.82;1.98;;;2.70;99.90;;;;;;5070203;28;20489;-87
2023/04/26 01:17:30;;;;;;;3.85;1.70;;;2.30;99.90;;;;;;5044828;28;20041;-88
2023/04/26 01:19:56;;;;;;;6.57;1.88;;;2.60;1.00;;;;;;5053061;28;20055;-87
2023/04/26 01:22:22;;;;;;;4.13;1.70;;;2.30;1.00;;;;;;5056388;28;20044;-87
2023/04/26 01:24:50;;;;;;;5.72;1.77;;;2.30;1.00;;;;;;5058624;28;20075;-87
2023/04/26 01:27:16;;;;;;;6.85;1.83;;;2.40;1.00;;;;;;5072859;28;20059;-87
2023/04/26 01:29:45;;;;;;;9.45;2.35;;;2.30;1.00;;;;;;5053503;28;20159;-87
2023/04/26 01:32:13;;;;;;;2.95;1.55;;;2.60;1.00;;;;;;5055280;28;20058;-87
2023/04/26 01:34:42;;;;;;;6.70;1.52;;;2.30;1.00;;;;;;5088449;28;20118;-86
2023/04/26 01:37:13;;;;;;;5.63;2.38;;;2.20;1.00;;;;;;5064574;28;20539;-87
2023/04/26 01:39:41;;;;;;;7.28;2.08;;;2.20;1.00;;;;;;5056664;28;20041;-87
2023/04/26 01:42:07;;;;;;;6.53;2.45;;;2.10;1.00;;;;;;5071738;28;20044;-87
2023/04/26 01:44:36;;;;;;;7.88;1.60;;;2.40;1.00;;;;;;5054156;28;20378;-87
2023/04/26 01:47:02;;;;;;;7.03;1.90;;;2.10;1.00;;;;;;5053335;28;20135;-88
2023/04/26 01:49:27;;;;;;;4.90;2.28;;;2.10;1.00;;;;;;5065263;28;20135;-86
2023/04/26 01:51:56;;;;;;;6.63;1.90;;;2.40;1.00;;;;;;5052098;28;20040;-87
2023/04/26 01:54:27;;;;;;;10.32;2.42;;;2.30;1.00;;;;;;5050065;28;20097;-87
2023/04/26 01:56:55;;;;;;;5.32;2.25;;;2.00;1.00;;;;;;5067602;28;20051;-87
2023/04/26 01:59:21;;;;;;;5.47;1.70;;;1.90;1.00;;;;;;5085389;28;20080;-88
2023/04/26 02:01:46;;;;;;;4.15;1.75;;;2.00;1.00;;;;;;5049964;28;20110;-87
2023/04/26 02:04:12;;;;;;;5.70;1.80;;;1.90;1.00;;;;;;5075698;28;20048;-87
2023/04/26 02:06:41;;;;;;;8.15;2.30;;;1.90;1.00;;;;;;5071036;28;20083;-86
2023/04/26 02:09:08;;;;;;;7.30;1.88;;;2.30;1.00;;;;;;5065280;28;20379;-85
2023/04/26 02:11:37;;;;;;;4.72;2.15;;;2.40;1.00;;;;;;5072549;28;20052;-87
2023/04/26 02:14:03;;;;;;;5.22;1.90;;;2.20;1.00;;;;;;5041988;28;20059;-87
2023/04/26 02:16:29;;;;;;;9.30;2.05;;;2.20;1.00;;;;;;5053461;28;20048;-87
2023/04/26 02:19:04;;;;;;;7.07;1.70;;;2.50;1.00;;;;;;5038341;28;20052;-87
2023/04/26 02:21:32;;;;;;;7.32;1.80;;;2.70;1.00;;;;;;5057596;28;20155;-86
2023/04/26 02:24:02;;;;;;;5.88;1.83;;;2.60;99.90;;;;;;5069825;28;20044;-85
2023/04/26 02:26:31;;;;;;;8.82;2.47;;;2.70;99.90;;;;;;5049370;28;20153;-86
2023/04/26 02:28:57;;;;;;;8.38;2.97;;;2.60;99.90;;;;;;5051867;28;20051;-86
2023/04/26 02:31:22;;;;;;;7.05;2.35;;;2.20;99.90;;;;;;5044684;28;20123;-84
2023/04/26 02:33:48;;;;;;;7.03;1.90;;;2.10;99.90;;;;;;5069352;28;20045;-84
2023/04/26 02:36:14;;;;;;;7.07;1.88;;;2.20;99.90;;;;;;5069471;28;20044;-86
2023/04/26 02:38:42;;;;;;;9.50;2.10;;;2.30;99.90;;;;;;5068266;28;20053;-87
2023/04/26 02:41:10;;;;;;;12.05;2.13;;;2.00;99.90;;;;;;5062267;28;20876;-87
2023/04/26 02:43:39;;;;;;;6.60;2.33;;;2.00;99.90;;;;;;5047430;28;20094;-86
2023/04/26 02:46:08;;;;;;;5.45;1.98;;;2.00;1.00;;;;;;5052520;28;20059;-86
2023/04/26 02:48:34;;;;;;;3.03;1.90;;;2.30;1.00;;;;;;5048703;28;20083;-87
2023/04/26 02:51:03;;;;;;;3.47;1.95;;;2.50;1.00;;;;;;5060217;28;20076;-87
2023/04/26 02:53:31;;;;;;;6.15;1.98;;;2.20;1.00;;;;;;5050582;28;20098;-86
2023/04/26 02:55:59;;;;;;;9.98;2.10;;;2.30;1.00;;;;;;5052654;28;20480;-87
2023/04/26 02:58:27;;;;;;;9.23;2.25;;;2.50;99.90;;;;;;5052885;28;20102;-87
2023/04/26 03:00:53;;;;;;;4.88;1.63;;;2.20;99.90;;;;;;5045463;28;20052;-86
2023/04/26 03:03:19;;;;;;;5.93;2.28;;;2.30;99.90;;;;;;5042778;28;20051;-85
2023/04/26 03:05:45;;;;;;;3.85;1.58;;;2.20;99.90;;;;;;5057812;28;20134;-86
2023/04/26 03:08:11;;;;;;;6.10;1.70;;;2.10;99.90;;;;;;5050453;28;20044;-86
2023/04/26 03:10:37;;;;;;;10.13;2.22;;;2.40;99.90;;;;;;5069730;28;20051;-86
2023/04/26 03:13:06;;;;;;;2.88;1.60;;;2.00;99.90;;;;;;5088426;28;20393;-85
2023/04/26 03:15:32;;;;;;;6.75;1.50;;;2.20;99.90;;;;;;5052656;28;20056;-88
2023/04/26 03:17:57;;;;;;;5.85;1.90;;;1.60;99.90;;;;;;5050478;28;20056;-86
2023/04/26 03:20:24;;;;;;;6.40;1.73;;;2.00;99.90;;;;;;5070003;28;20053;-87
2023/04/26 03:22:50;;;;;;;7.82;2.00;;;2.10;99.90;;;;;;5068076;28;20040;-85
2023/04/26 03:25:16;;;;;;;6.30;1.80;;;2.20;99.90;;;;;;5060492;28;20103;-86
2023/04/26 03:27:42;;;;;;;7.93;2.17;;;2.50;99.90;;;;;;5051405;28;20045;-87
2023/04/26 03:30:08;;;;;;;3.55;1.58;;;2.20;99.90;;;;;;5052410;28;20086;-88
2023/04/26 03:32:34;;;;;;;7.80;2.03;;;2.10;99.90;;;;;;5068118;28;20119;-88
2023/04/26 03:35:00;;;;;;;5.13;1.80;;;2.00;99.90;;;;;;5054549;28;20131;-87
2023/04/26 03:37:28;;;;;;;4.32;1.50;;;2.00;99.90;;;;;;5076963;28;20040;-86
2023/04/26 03:39:54;;;;;;;3.72;1.85;;;2.00;1.00;;;;;;5059985;28;20044;-86
2023/04/26 03:42:20;;;;;;;7.60;1.92;;;1.90;1.00;;;;;;5031344;28;20049;-87
2023/04/26 03:44:45;;;;;;;8.13;2.30;;;2.30;1.00;;;;;;5059414;28;20044;-87
2023/04/26 03:47:14;;;;;;;5.85;2.13;;;2.20;1.00;;;;;;5053700;28;20044;-86
2023/04/26 03:49:41;;;;;;;5.90;1.90;;;2.00;1.00;;;;;;5066686;28;20063;-86
2023/04/26 03:52:06;;;;;;;15.15;2.80;;;2.30;1.00;;;;;;5053952;28;20478;-86
2023/04/26 03:54:33;;;;;;;6.32;1.85;;;2.10;1.00;;;;;;5050488;28;20040;-87
2023/04/26 03:56:59;;;;;;;7.22;2.00;;;2.20;1.00;;;;;;5075536;28;20036;-86
2023/04/26 03:59:27;;;;;;;4.22;2.00;;;2.30;1.00;;;;;;5052039;28;20048;-87
2023/04/26 04:01:53;;;;;;;4.93;1.92;;;2.40;1.00;;;;;;5051285;28;20052;-87
2023/04/26 04:04:19;;;;;;;5.68;1.80;;;2.40;1.00;;;;;;5068243;28;20044;-87
2023/04/26 04:06:47;;;;;;;8.38;1.75;;;2.80;1.00;;;;;;5045276;28;20073;-86
2023/04/26 04:09:16;;;;;;;9.35;2.05;;;2.60;1.00;;;;;;5036858;28;20053;-87
2023/04/26 04:11:44;;;;;;;4.53;1.95;;;2.50;1.00;;;;;;5049698;28;20067;-86
2023/04/26 04:14:10;;;;;;;5.15;2.60;;;2.90;1.00;;;;;;5034325;28;20123;-86
2023/04/26 04:16:36;;;;;;;6.95;1.88;;;2.70;99.90;;;;;;5055763;28;20048;-86
2023/04/26 04:19:02;;;;;;;5.38;2.00;;;2.70;99.90;;;;;;5069660;28;20044;-86
2023/04/26 04:21:28;;;;;;;5.78;2.17;;;3.10;99.90;;;;;;5082589;28;20044;-86
2023/04/26 04:23:54;;;;;;;6.53;1.90;;;2.70;99.90;;;;;;5052851;28;20049;-87
2023/04/26 04:26:22;;;;;;;4.03;1.77;;;2.70;99.90;;;;;;5036730;28;20037;-87
2023/04/26 04:28:56;;;;;;;6.85;2.33;;;2.90;99.90;;;;;;5086933;28;20051;-87
2023/04/26 04:31:21;;;;;;;7.60;1.95;;;2.50;99.90;;;;;;5049161;28;20037;-86
2023/04/26 04:33:53;;;;;;;5.47;1.73;;;2.30;99.90;;;;;;5052759;28;20075;-86
2023/04/26 04:36:21;;;;;;;5.93;1.85;;;2.30;99.90;;;;;;5062719;28;20813;-88
2023/04/26 04:38:47;;;;;;;3.67;1.75;;;2.50;99.90;;;;;;5055498;28;20565;-86
2023/04/26 04:41:20;;;;;;;6.80;2.05;;;2.20;99.90;;;;;;5054923;28;20182;-89
2023/04/26 04:43:49;;;;;;;8.68;2.13;;;2.20;99.90;;;;;;5062210;28;20044;-88
2023/04/26 04:46:15;;;;;;;7.38;2.10;;;2.10;99.90;;;;;;5053798;28;20053;-87
2023/04/26 04:48:52;;;;;;;5.65;2.40;;;2.10;99.90;;;;;;5040370;28;20048;-87
2023/04/26 04:51:18;;;;;;;7.22;2.28;;;1.90;1.00;;;;;;5056596;28;20041;-87
2023/04/26 04:53:44;;;;;;;5.30;2.00;;;2.10;1.00;;;;;;5052513;28;20050;-87
2023/04/26 04:56:10;;;;;;;5.85;2.40;;;2.10;1.00;;;;;;5079199;28;20045;-86
2023/04/26 04:58:41;;;;;;;4.97;2.10;;;2.30;1.00;;;;;;5064795;28;20045;-86
2023/04/26 05:01:07;;;;;;;6.18;2.45;;;2.50;1.00;;;;;;5049429;28;20056;-88
2023/04/26 05:03:33;;;;;;;4.07;2.20;;;2.40;1.00;;;;;;5069017;28;20045;-84
2023/04/26 05:06:01;;;;;;;9.82;2.15;;;2.50;1.00;;;;;;5052050;28;20345;-84
2023/04/26 05:08:27;;;;;;;6.78;2.20;;;2.70;1.00;;;;;;5046123;28;20127;-83
2023/04/26 05:10:54;;;;;;;8.13;2.45;;;2.70;99.90;;;;;;5060481;28;20070;-79
2023/04/26 05:13:19;;;;;;;13.88;3.38;;;2.70;99.90;;;;;;5065109;28;20140;-85
2023/04/26 05:15:45;;;;;;;5.50;2.67;;;2.80;99.90;;;;;;5066332;28;20178;-86
2023/04/26 05:18:11;;;;;;;8.10;2.63;;;2.80;99.90;;;;;;5068362;28;20051;-86
2023/04/26 05:20:38;;;;;;;8.27;3.22;;;2.90;99.90;;;;;;5053989;28;20045;-87
2023/04/26 05:23:03;;;;;;;10.73;2.53;;;2.80;99.90;;;;;;5054939;28;20048;-87
2023/04/26 05:25:29;;;;;;;7.72;2.55;;;2.80;99.90;;;;;;5051210;28;20795;-88
2023/04/26 05:27:58;;;;;;;6.60;3.17;;;2.80;99.90;;;;;;5071247;28;20121;-88
2023/04/26 05:30:27;;;;;;;6.35;2.30;;;2.70;99.90;;;;;;5054026;28;20074;-88
2023/04/26 05:33:00;;;;;;;7.38;2.53;;;2.40;99.90;;;;;;5056484;28;20052;-88
2023/04/26 05:35:25;;;;;;;5.80;2.33;;;2.60;99.90;;;;;;5056331;28;20044;-81
2023/04/26 05:37:51;;;;;;;7.97;2.40;;;2.70;99.90;;;;;;5067163;28;20514;-82
2023/04/26 05:40:17;;;;;;;6.40;2.38;;;2.50;99.90;;;;;;5045174;28;20183;-86
2023/04/26 05:43:02;;;;;;;5.75;2.85;;;2.50;99.90;;;;;;5048544;28;20398;-86
2023/04/26 05:45:28;;;;;;;12.70;2.60;;;2.70;99.90;;;;;;5060423;28;20103;-87
2023/04/26 05:47:54;;;;;;;4.53;2.63;;;2.60;99.90;;;;;;5071775;28;20083;-85
2023/04/26 05:50:22;;;;;;;8.40;2.85;;;2.50;1.00;;;;;;5083457;28;20039;-87
2023/04/26 05:52:48;;;;;;;4.38;2.47;;;2.60;1.00;;;;;;5055217;28;20389;-85
2023/04/26 05:55:14;;;;;;;10.02;2.78;;;3.10;1.00;;;;;;5071276;28;20101;-85
2023/04/26 05:57:40;;;;;;;4.97;2.83;;;3.10;1.00;;;;;;5037994;28;20079;-85
2023/04/26 06:00:08;;;;;;;5.70;2.20;;;3.10;99.90;;;;;;5053852;28;20122;-85
2023/04/26 06:02:34;;;;;;;5.03;2.38;;;3.10;99.90;;;;;;5052811;28;20514;-85
2023/04/26 06:05:00;;;;;;;5.97;2.45;;;3.20;99.90;;;;;;5053879;28;20127;-85
2023/04/26 06:07:26;;;;;;;8.75;2.22;;;3.40;99.90;;;;;;5071077;28;20186;-85
2023/04/26 06:09:51;;;;;;;5.20;1.88;;;3.60;99.90;;;;;;5048478;28;20123;-85
2023/04/26 06:12:17;;;;;;;5.60;2.40;;;3.90;99.90;;;;;;5062760;28;20048;-86
2023/04/26 06:14:46;;;;;;;4.88;2.35;;;4.20;1.00;;;;;;5053922;28;20436;-84
2023/04/26 06:17:11;;;;;;;6.82;2.00;;;4.50;99.90;;;;;;5070383;28;20048;-84
2023/04/26 06:19:37;;;;;;;7.13;1.75;;;4.70;99.90;;;;;;5033321;28;20043;-86
2023/04/26 06:22:03;;;;;;;3.05;1.75;;;5.10;99.90;;;;;;5033070;28;20150;-85
2023/04/26 06:24:29;;;;;;;4.25;1.95;;;5.60;99.90;;;;;;5053588;28;20040;-87
2023/04/26 06:26:55;;;;;;;4.40;1.92;;;6.10;99.90;;;;;;5054374;28;20032;-86
2023/04/26 06:29:21;;;;;;;5.63;1.48;;;6.30;99.90;;;;;;5053881;28;20114;-84
2023/04/26 06:31:46;;;;;;;4.25;1.60;;;6.40;99.90;;;;;;5061107;28;20056;-85
2023/04/26 06:34:12;;;;;;;3.53;1.55;;;6.50;1.00;;;;;;5055024;28;20059;-85
2023/04/26 06:36:38;;;;;;;6.93;2.50;;;6.50;1.00;;;;;;5080629;28;20041;-85
2023/04/26 06:39:03;;;;;;;3.65;1.70;;;6.50;1.00;;;;;;5037120;28;20036;-85
2023/04/26 06:41:30;;;;;;;2.67;1.50;;;6.50;99.90;;;;;;5053332;28;20109;-85
2023/04/26 06:43:55;;;;;;;4.32;1.98;;;6.40;99.90;;;;;;5054871;28;20041;-85
2023/04/26 06:46:21;;;;;;;3.95;1.88;;;6.40;99.90;;;;;;5070157;28;20102;-85
2023/04/26 06:48:47;;;;;;;4.55;1.67;;;6.40;99.90;;;;;;5070205;28;20059;-86
2023/04/26 06:51:12;;;;;;;3.03;1.52;;;6.40;99.90;;;;;;5070646;28;20036;-85
2023/04/26 06:53:38;;;;;;;3.70;1.70;;;6.40;99.90;;;;;;5053433;28;20036;-85
2023/04/26 06:56:04;;;;;;;3.05;1.77;;;6.40;99.90;;;;;;5070333;28;20496;-85
2023/04/26 06:58:30;;;;;;;9.65;1.98;;;6.50;99.90;;;;;;5070382;28;20412;-85
2023/04/26 07:00:55;;;;;;;7.15;1.90;;;6.50;99.90;;;;;;5035963;28;20512;-85
2023/04/26 07:03:21;;;;;;;4.15;1.60;;;6.60;99.90;;;;;;5051320;28;20084;-89
2023/04/26 07:05:47;;;;;;;8.73;2.70;;;6.60;99.90;;;;;;5032012;28;20040;-85
2023/04/26 07:08:13;;;;;;;6.97;1.63;;;6.70;99.90;;;;;;5031516;28;20045;-85
2023/04/26 07:10:40;;;;;;;7.35;1.85;;;6.80;99.90;;;;;;5031611;28;20478;-86
2023/04/26 07:13:05;;;;;;;3.28;1.50;;;6.90;99.90;;;;;;5049576;28;20048;-85
2023/04/26 07:15:32;;;;;;;6.03;1.63;;;7.00;99.90;;;;;;5068153;28;20102;-85
2023/04/26 07:17:57;;;;;;;8.20;1.70;;;7.00;99.90;;;;;;5050712;28;20048;-86
2023/04/26 07:20:23;;;;;;;4.07;1.20;;;7.00;99.90;;;;;;5066435;28;20106;-89
2023/04/26 07:22:49;;;;;;;6.00;1.98;;;6.90;99.90;;;;;;5065706;28;20047;-87
2023/04/26 07:25:16;;;;;;;8.32;1.50;;;6.90;99.90;;;;;;5067254;28;20121;-86
2023/04/26 07:27:42;;;;;;;6.28;1.50;;;6.90;99.90;;;;;;5049731;28;20052;-87
2023/04/26 07:30:09;;;;;;;3.08;1.42;;;7.00;99.90;;;;;;5067279;28;20049;-85
2023/04/26 07:32:35;;;;;;;4.97;1.77;;;7.10;99.90;;;;;;5048657;28;20047;-84
2023/04/26 07:35:06;;;;;;;8.02;1.70;;;7.20;99.90;;;;;;5035830;28;20044;-86
2023/04/26 07:37:32;;;;;;;5.63;1.42;;;7.30;99.90;;;;;;5050225;28;20459;-85
2023/04/26 07:39:58;;;;;;;6.07;1.60;;;7.40;99.90;;;;;;5069269;28;20091;-85
2023/04/26 07:42:24;;;;;;;5.75;1.50;;;7.50;99.90;;;;;;5068604;28;20044;-86
2023/04/26 07:44:50;;;;;;;5.40;1.38;;;7.70;99.90;;;;;;5035919;28;20089;-84
2023/04/26 07:47:15;;;;;;;2.70;1.42;;;7.90;99.90;;;;;;5052473;28;20041;-84
2023/04/26 07:49:41;;;;;;;6.88;1.40;;;8.10;99.90;;;;;;5069903;28;20041;-85
2023/04/26 07:52:08;;;;;;;5.90;1.38;;;8.20;99.90;;;;;;5042799;28;20052;-85
2023/04/26 07:54:34;;;;;;;4.15;1.33;;;8.40;99.90;;;;;;5073947;28;20482;-86
2023/04/26 07:57:00;;;;;;;4.85;2.20;;;8.50;81.50;;;;;;5060997;28;20120;-84
2023/04/26 07:59:26;;;;;;;6.60;1.42;;;8.50;71.80;;;;;;5057341;28;20127;-85
2023/04/26 08:01:52;;;;;;;4.80;1.25;;;8.70;86.00;;;;;;5073317;28;20131;-86
2023/04/26 08:04:31;;;;;;;1.85;1.02;;;8.80;68.50;;;;;;5037519;28;20546;-86
2023/04/26 08:06:57;;;;;;;3.25;1.00;;;9.00;38.70;;;;;;5045700;28;20045;-85
2023/04/26 08:09:23;;;;;;;5.47;1.30;;;9.30;40.40;;;;;;5088545;28;20504;-85
2023/04/26 08:11:48;;;;;;;6.43;1.38;;;9.40;29.10;;;;;;5045783;28;20047;-84
2023/04/26 08:14:14;;;;;;;4.97;1.40;;;9.40;4.50;;;;;;5073884;28;20041;-85
2023/04/26 08:16:40;;;;;;;3.17;1.23;;;9.40;25.70;;;;;;5056661;28;20036;-85
2023/04/26 08:19:06;;;;;;;2.58;1.45;;;9.60;39.10;;;;;;5040548;28;20190;-85
2023/04/26 08:21:32;;;;;;;3.40;1.30;;;9.70;26.20;;;;;;5056452;28;20137;-88
2023/04/26 08:23:57;;;;;;;4.13;1.23;;;9.70;1.00;;;;;;5073080;28;20044;-86
2023/04/26 08:26:23;;;;;;;4.32;1.27;;;9.70;1.00;;;;;;5057027;28;20036;-86
2023/04/26 08:28:49;;;;;;;3.45;1.33;;;9.80;1.00;;;;;;5072211;28;20131;-85
2023/04/26 08:31:15;;;;;;;3.92;1.33;;;9.90;1.00;;;;;;5073322;28;20109;-85
2023/04/26 08:33:41;;;;;;;2.80;1.20;;;10.00;1.00;;;;;;5054638;28;20080;-85
2023/04/26 08:36:07;;;;;;;4.35;1.10;;;10.10;1.00;;;;;;5056271;28;20559;-85
2023/04/26 08:38:33;;;;;;;3.90;1.30;;;10.10;1.00;;;;;;5022904;28;20570;-86
2023/04/26 08:41:00;;;;;;;5.30;1.73;;;10.10;1.00;;;;;;5081652;28;20048;-85
2023/04/26 08:43:28;;;;;;;4.28;1.45;;;10.10;1.00;;;;;;5060678;28;20135;-85
2023/04/26 08:45:54;;;;;;;5.75;1.50;;;10.10;1.00;;;;;;5056170;28;20048;-84
2023/04/26 08:48:20;;;;;;;6.68;1.60;;;10.10;1.00;;;;;;5054194;28;20127;-88
2023/04/26 08:50:47;;;;;;;2.13;1.20;;;10.20;1.00;;;;;;5043693;28;20068;-85
2023/04/26 08:53:16;;;;;;;5.22;1.60;;;10.30;1.00;;;;;;5071202;28;20481;-86
2023/04/26 08:55:49;;;;;;;7.35;1.50;;;10.40;1.00;;;;;;5054522;28;20051;-86
2023/04/26 08:58:17;;;;;;;2.92;1.27;;;10.50;1.00;;;;;;5067165;28;20102;-85
2023/04/26 09:00:44;;;;;;;2.67;1.30;;;10.70;1.00;;;;;;5061884;28;20063;-85
2023/04/26 09:03:10;;;;;;;4.65;1.67;;;11.00;1.00;;;;;;5070103;28;20052;-85
2023/04/26 09:05:38;;;;;;;5.53;1.65;;;11.30;1.00;;;;;;5072517;28;20094;-88
2023/04/26 09:08:06;;;;;;;9.07;1.73;;;11.20;1.00;;;;;;5051508;28;20521;-84
2023/04/26 09:10:31;;;;;;;5.38;1.50;;;11.30;1.00;;;;;;5047497;28;20047;-84
2023/04/26 09:12:57;;;;;;;4.00;1.23;;;11.60;1.00;;;;;;5076184;28;20528;-87
2023/04/26 09:15:25;;;;;;;3.47;1.30;;;12.00;1.00;;;;;;5052694;28;20135;-87
2023/04/26 09:17:52;;;;;;;4.05;1.45;;;12.40;1.00;;;;;;5067364;28;20080;-85
2023/04/26 09:20:22;;;;;;;6.28;1.35;;;12.80;1.00;;;;;;5070203;28;20056;-85
2023/04/26 09:22:52;;;;;;;4.25;1.30;;;12.50;1.00;;;;;;5067232;28;20037;-86
2023/04/26 09:25:27;;;;;;;2.67;1.58;;;12.30;1.00;;;;;;5053567;28;20409;-86
2023/04/26 09:27:52;;;;;;;5.32;1.52;;;11.80;1.00;;;;;;5069489;28;20040;-85
2023/04/26 09:30:21;;;;;;;3.75;1.17;;;11.30;1.00;;;;;;5071037;28;20089;-85
2023/04/26 09:32:57;;;;;;;7.60;1.55;;;10.70;1.00;;;;;;5051703;28;20136;-87
2023/04/26 09:35:37;;;;;;;4.28;1.33;;;10.20;1.00;;;;;;5049204;28;20482;-84
2023/04/26 09:38:07;;;;;;;4.57;1.35;;;9.80;1.00;;;;;;5069422;28;20052;-85
2023/04/26 09:40:34;;;;;;;5.47;1.67;;;9.60;1.00;;;;;;5047542;28;20037;-86
2023/04/26 09:43:03;;;;;;;5.13;1.70;;;9.40;1.00;;;;;;5045200;28;20202;-84
2023/04/26 09:45:30;;;;;;;4.00;1.48;;;9.10;1.00;;;;;;5068406;28;20044;-85
2023/04/26 09:48:33;;;;;;;9.82;2.47;;;8.70;1.00;;;;;;5069096;28;20489;-85
2023/04/26 09:51:12;;;;;;;5.28;1.63;;;8.40;1.00;;;;;;5077355;28;20044;-85
2023/04/26 09:53:44;;;;;;;4.43;1.88;;;8.10;1.00;;;;;;5067550;28;20042;-85
2023/04/26 09:56:18;;;;;;;4.35;1.88;;;8.00;1.00;;;;;;5085130;28;20117;-85
2023/04/26 09:58:47;;;;;;;6.97;1.83;;;8.00;1.00;;;;;;5052615;28;20048;-91
2023/04/26 10:01:18;;;;;;;3.70;1.70;;;8.00;1.00;;;;;;5067016;28;20064;-87
2023/04/26 10:03:44;;;;;;;3.40;1.63;;;8.20;1.00;;;;;;5036304;28;20048;-90
2023/04/26 10:06:12;;;;;;;11.27;2.50;;;8.50;1.00;;;;;;5035591;28;20139;-86
2023/04/26 10:08:37;;;;;;;6.38;3.03;;;8.90;1.00;;;;;;5069326;28;20496;-86
2023/04/26 10:11:06;;;;;;;6.45;1.80;;;9.20;1.00;;;;;;5085256;28;20072;-85
2023/04/26 10:13:32;;;;;;;8.63;2.38;;;9.60;1.00;;;;;;5069172;28;20050;-85
2023/04/26 10:16:01;;;;;;;6.60;2.05;;;9.80;1.00;;;;;;5049793;28;20052;-84
2023/04/26 10:18:28;;;;;;;5.88;2.33;;;10.10;1.00;;;;;;5054786;28;20044;-85
2023/04/26 10:20:59;;;;;;;7.97;2.70;;;10.40;1.00;;;;;;5073084;28;20051;-85
2023/04/26 10:23:26;;;;;;;4.65;1.67;;;10.70;1.00;;;;;;5054636;28;20053;-85
2023/04/26 10:25:53;;;;;;;3.35;1.90;;;11.00;1.00;;;;;;5023490;28;20128;-85
2023/04/26 10:28:38;;;;;;;5.10;2.33;;;11.30;1.00;;;;;;5069529;28;20041;-85
2023/04/26 10:31:05;;;;;;;3.63;1.63;;;11.30;1.00;;;;;;5085478;28;20537;-85
2023/04/26 10:33:31;;;;;;;2.67;1.40;;;11.10;1.00;;;;;;5070137;28;20044;-85
2023/04/26 10:36:00;;;;;;;5.25;2.25;;;11.00;1.00;;;;;;5037437;28;20094;-86
2023/04/26 10:38:26;;;;;;;5.13;1.90;;;10.80;1.00;;;;;;5072030;28;20075;-85
2023/04/26 10:40:52;;;;;;;5.40;1.75;;;10.60;1.00;;;;;;5069554;28;20080;-85
2023/04/26 10:43:18;;;;;;;8.02;2.20;;;10.50;1.00;;;;;;5053943;28;20055;-85
2023/04/26 10:45:48;;;;;;;5.93;2.88;;;10.50;1.00;;;;;;5074415;28;20057;-85
2023/04/26 10:48:16;;;;;;;7.07;2.55;;;10.80;1.00;;;;;;5057768;28;20083;-85
2023/04/26 10:51:00;;;;;;;5.65;2.58;;;11.10;1.00;;;;;;5070901;28;20509;-86
2023/04/26 10:53:44;;;;;;;6.50;2.22;;;11.40;1.00;;;;;;5070608;28;20052;-86
2023/04/26 10:56:19;;;;;;;6.32;2.63;;;11.60;1.00;;;;;;5083850;28;20062;-85
2023/04/26 10:58:45;;;;;;;4.88;1.48;;;11.70;1.00;;;;;;5026918;28;20088;-85
2023/04/26 11:01:16;;;;;;;3.70;1.60;;;11.70;1.00;;;;;;5053173;28;20122;-85
2023/04/26 11:04:00;;;;;;;5.80;2.30;;;11.50;1.00;;;;;;5070619;28;20053;-85
2023/04/26 11:06:45;;;;;;;5.38;2.30;;;11.60;1.00;;;;;;5070180;28;20047;-85
2023/04/26 11:09:38;;;;;;;3.97;1.67;;;11.70;1.00;;;;;;5053032;28;20045;-86
2023/04/26 11:12:05;;;;;;;6.30;2.72;;;11.90;1.00;;;;;;5053703;28;20087;-85
2023/04/26 11:14:33;;;;;;;6.18;3.88;;;12.10;1.00;;;;;;5066034;28;20045;-86
2023/04/26 11:17:02;;;;;;;6.07;2.08;;;12.20;1.00;;;;;;5061310;28;20441;-85
2023/04/26 11:19:28;;;;;;;5.10;1.20;;;12.40;1.00;;;;;;5053741;28;20153;-86
2023/04/26 11:21:54;;;;;;;2.50;1.50;;;12.50;1.00;;;;;;5053948;28;20442;-87
2023/04/26 11:24:27;;;;;;;3.17;1.10;;;12.70;1.00;;;;;;5069861;28;20053;-85
2023/04/26 11:26:53;;;;;;;1.92;1.10;;;12.60;1.00;;;;;;5045893;28;20052;-85
2023/04/26 11:29:20;;;;;;;4.78;1.25;;;12.60;1.00;;;;;;5088493;28;20132;-85
2023/04/26 11:31:53;;;;;;;4.45;1.20;;;12.80;1.00;;;;;;5063855;28;20045;-85
2023/04/26 11:34:30;;;;;;;2.83;1.30;;;12.80;1.00;;;;;;5038103;28;20037;-85
2023/04/26 11:36:56;;;;;;;2.08;1.30;;;13.00;1.00;;;;;;5051439;28;20052;-90
2023/04/26 11:39:22;;;;;;;4.40;1.50;;;13.40;1.00;;;;;;5057326;28;20044;-86
2023/04/26 11:41:48;;;;;;;3.72;1.90;;;13.80;1.00;;;;;;5039811;28;20048;-86
2023/04/26 11:44:20;;;;;;;5.03;1.40;;;14.10;1.00;;;;;;5057204;28;20041;-85
2023/04/26 11:46:48;;;;;;;4.30;2.10;;;14.60;1.00;;;;;;5045403;28;20037;-85
2023/04/26 11:49:15;;;;;;;4.40;1.73;;;15.00;1.00;;;;;;5040403;28;20519;-85
2023/04/26 11:51:41;;;;;;;5.78;2.25;;;15.00;1.00;;;;;;5073649;28;20045;-87
2023/04/26 11:54:07;;;;;;;5.22;1.98;;;15.00;1.00;;;;;;5073741;28;20441;-86
2023/04/26 11:56:33;;;;;;;4.97;1.95;;;14.80;1.00;;;;;;5069101;28;20552;-85
2023/04/26 11:58:58;;;;;;;5.45;1.95;;;14.00;1.00;;;;;;5057263;28;20079;-89
2023/04/26 12:01:29;;;;;;;4.72;1.58;;;12.90;1.00;;;;;;5056378;28;20766;-86
2023/04/26 12:03:57;;;;;;;7.53;1.70;;;11.90;1.00;;;;;;5056736;28;20114;-85
2023/04/26 12:06:32;;;;;;;4.00;2.20;;;11.00;1.00;;;;;;5073008;28;20809;-85
2023/04/26 12:09:01;;;;;;;3.75;1.92;;;10.30;1.00;;;;;;5056790;28;20079;-88
2023/04/26 12:11:27;;;;;;;5.63;1.52;;;9.80;1.00;;;;;;5056331;28;20037;-85
2023/04/26 12:13:53;;;;;;;10.40;2.17;;;9.40;1.00;;;;;;5057063;28;20106;-84
2023/04/26 12:16:21;;;;;;;5.22;1.48;;;9.10;1.00;;;;;;5039564;28;20807;-85
2023/04/26 12:18:52;;;;;;;6.20;1.85;;;9.00;1.00;;;;;;5068006;28;20477;-85
2023/04/26 12:21:18;;;;;;;3.28;1.50;;;9.10;1.00;;;;;;5070747;28;20053;-84
2023/04/26 12:23:46;;;;;;;4.70;2.05;;;9.20;1.00;;;;;;5064825;28;20121;-86
2023/04/26 12:26:12;;;;;;;4.72;1.70;;;9.40;1.00;;;;;;5053555;28;20127;-84
2023/04/26 12:28:38;;;;;;;4.40;1.63;;;9.60;1.00;;;;;;5055892;28;20498;-85
2023/04/26 12:31:05;;;;;;;5.93;1.70;;;9.80;1.00;;;;;;5072923;28;20119;-85
2023/04/26 12:33:31;;;;;;;3.97;1.65;;;9.90;1.00;;;;;;5073609;28;20135;-86
2023/04/26 12:36:07;;;;;;;4.13;2.10;;;10.10;1.00;;;;;;5039816;28;20405;-84
2023/04/26 12:38:33;;;;;;;4.60;1.75;;;10.30;1.00;;;;;;5071421;28;20113;-86
2023/04/26 12:41:00;;;;;;;4.68;1.50;;;10.30;1.00;;;;;;5065961;28;20052;-84
2023/04/26 12:43:25;;;;;;;7.80;2.00;;;10.30;1.00;;;;;;5067446;28;20060;-85
2023/04/26 12:45:51;;;;;;;4.05;2.28;;;10.30;1.00;;;;;;5051720;28;20490;-84
2023/04/26 12:48:17;;;;;;;4.70;2.35;;;10.40;1.00;;;;;;5022919;28;20115;-85
2023/04/26 12:50:43;;;;;;;8.25;2.08;;;10.60;1.00;;;;;;5039796;28;20045;-86
2023/04/26 12:53:09;;;;;;;2.90;2.00;;;10.60;1.00;;;;;;5056095;28;20059;-86
2023/04/26 12:55:36;;;;;;;6.45;2.40;;;10.60;1.00;;;;;;5072872;28;20053;-85
2023/04/26 12:58:02;;;;;;;7.43;2.17;;;10.50;1.00;;;;;;5055978;28;20051;-86
2023/04/26 13:00:28;;;;;;;4.95;2.88;;;10.40;1.00;;;;;;5047494;28;20048;-85
2023/04/26 13:02:54;;;;;;;5.60;2.60;;;10.40;1.00;;;;;;5042494;28;20413;-85